createdAt,value
2017-09-28T00:01:23.407Z,91.10
2017-09-28T00:03:51.679Z,90.80
2017-09-28T00:06:20.035Z,90.50
2017-09-28T00:08:48.286Z,91.00
2017-09-28T00:11:16.624Z,91.20
2017-09-28T00:13:44.911Z,91.10
2017-09-28T00:16:13.175Z,91.20
2017-09-28T00:18:41.944Z,91.10
2017-09-28T00:21:11.074Z,91.20
2017-09-28T00:23:39.330Z,91.20
2017-09-28T00:26:07.595Z,91.20
2017-09-28T00:28:36.610Z,91.20
2017-09-28T00:31:05.126Z,91.20
2017-09-28T00:33:33.383Z,91.20
2017-09-28T00:36:02.372Z,91.30
2017-09-28T00:38:30.624Z,91.30
2017-09-28T00:40:58.897Z,91.30
2017-09-28T00:43:27.138Z,91.30
2017-09-28T00:45:55.531Z,91.30
2017-09-28T00:48:23.792Z,91.30
2017-09-28T00:50:52.090Z,91.20
2017-09-28T00:53:21.014Z,91.10
2017-09-28T00:55:50.087Z,91.10
2017-09-28T00:58:18.335Z,91.10
2017-09-28T01:00:46.598Z,91.20
2017-09-28T01:03:15.647Z,91.20
2017-09-28T01:05:43.964Z,91.20
2017-09-28T01:08:12.315Z,91.20
2017-09-28T01:10:40.588Z,91.20
2017-09-28T01:13:08.842Z,91.20
2017-09-28T01:15:37.871Z,91.20
2017-09-28T01:18:06.194Z,91.20
2017-09-28T01:20:34.431Z,91.20
2017-09-28T01:23:02.778Z,91.30
2017-09-28T01:25:31.038Z,91.30
2017-09-28T01:27:59.390Z,91.60
2017-09-28T01:30:27.642Z,91.40
2017-09-28T01:32:55.910Z,91.40
2017-09-28T01:35:24.926Z,91.30
2017-09-28T01:37:53.219Z,91.30
2017-09-28T01:40:21.481Z,91.30
2017-09-28T01:42:49.742Z,91.30
2017-09-28T01:45:18.778Z,90.70
2017-09-28T01:47:47.051Z,90.70
2017-09-28T01:50:15.349Z,90.50
2017-09-28T01:52:43.618Z,90.60
2017-09-28T01:55:11.887Z,90.60
2017-09-28T01:57:40.186Z,90.50
2017-09-28T02:00:08.464Z,90.50
2017-09-28T02:02:36.729Z,90.60
2017-09-28T02:05:05.035Z,90.70
2017-09-28T02:07:33.293Z,90.80
2017-09-28T02:10:01.929Z,91.40
2017-09-28T02:12:30.196Z,91.60
2017-09-28T02:14:58.447Z,91.70
2017-09-28T02:17:26.738Z,91.60
2017-09-28T02:19:55.013Z,91.60
2017-09-28T02:22:23.274Z,91.60
2017-09-28T02:24:51.535Z,91.60
2017-09-28T02:27:19.863Z,91.60
2017-09-28T02:29:48.155Z,92.00
2017-09-28T02:32:16.434Z,91.60
2017-09-28T02:34:44.695Z,91.60
2017-09-28T02:37:13.107Z,91.60
2017-09-28T02:39:41.369Z,91.60
2017-09-28T02:42:09.623Z,91.50
2017-09-28T02:44:38.657Z,91.10
2017-09-28T02:47:06.907Z,91.00
2017-09-28T02:49:36.016Z,91.00
2017-09-28T02:52:04.333Z,91.00
2017-09-28T02:54:33.637Z,91.10
2017-09-28T02:57:01.888Z,91.20
2017-09-28T02:59:30.151Z,91.40
2017-09-28T03:01:59.171Z,91.70
2017-09-28T03:04:27.443Z,91.60
2017-09-28T03:06:55.745Z,91.40
2017-09-28T03:09:24.023Z,91.40
2017-09-28T03:11:52.270Z,91.60
2017-09-28T03:14:21.306Z,92.10
2017-09-28T03:16:49.583Z,92.10
2017-09-28T03:19:17.871Z,92.00
2017-09-28T03:21:53.517Z,92.10
2017-09-28T03:24:21.793Z,92.10
2017-09-28T03:26:50.048Z,92.10
2017-09-28T03:29:19.086Z,92.10
2017-09-28T03:31:47.329Z,92.00
2017-09-28T03:34:15.642Z,92.10
2017-09-28T03:36:43.927Z,92.00
2017-09-28T03:39:12.210Z,92.00
2017-09-28T03:41:40.462Z,92.00
2017-09-28T03:44:08.726Z,92.00
2017-09-28T03:46:37.739Z,92.10
2017-09-28T03:49:06.012Z,92.10
2017-09-28T03:51:35.029Z,92.00
2017-09-28T03:54:03.329Z,92.00
2017-09-28T03:56:31.599Z,92.00
2017-09-28T03:58:59.908Z,91.90
2017-09-28T04:01:28.183Z,91.90
2017-09-28T04:03:56.453Z,91.90
2017-09-28T04:06:24.718Z,91.90
2017-09-28T04:08:52.963Z,91.90
2017-09-28T04:11:21.261Z,91.80
2017-09-28T04:13:50.303Z,91.80
2017-09-28T04:16:18.577Z,91.80
2017-09-28T04:18:46.824Z,91.80
2017-09-28T04:21:15.858Z,91.80
2017-09-28T04:23:44.415Z,91.80
2017-09-28T04:26:13.532Z,91.70
2017-09-28T04:28:41.783Z,91.70
2017-09-28T04:31:10.822Z,91.70
2017-09-28T04:33:39.111Z,91.70
2017-09-28T04:36:07.385Z,91.70
2017-09-28T04:38:35.626Z,91.60
2017-09-28T04:41:04.670Z,91.50
2017-09-28T04:43:32.927Z,91.50
2017-09-28T04:46:01.192Z,91.50
2017-09-28T04:48:30.207Z,91.60
2017-09-28T04:50:58.481Z,91.60
2017-09-28T04:53:26.735Z,91.60
2017-09-28T04:55:55.114Z,91.60
2017-09-28T04:58:23.468Z,91.60
2017-09-28T05:00:51.722Z,91.60
2017-09-28T05:03:20.001Z,91.70
2017-09-28T05:05:48.244Z,91.80
2017-09-28T05:08:16.530Z,91.70
2017-09-28T05:10:44.783Z,91.80
2017-09-28T05:13:13.061Z,91.80
2017-09-28T05:15:41.316Z,91.80
2017-09-28T05:18:09.607Z,91.80
2017-09-28T05:20:37.880Z,91.70
2017-09-28T05:23:06.172Z,91.80
2017-09-28T05:25:34.579Z,91.80
2017-09-28T05:28:04.504Z,91.90
2017-09-28T05:30:32.891Z,91.90
2017-09-28T05:33:02.704Z,91.90
2017-09-28T05:35:32.493Z,91.90
2017-09-28T05:38:00.799Z,91.90
2017-09-28T05:40:29.086Z,91.80
2017-09-28T05:42:57.351Z,91.90
2017-09-28T05:45:25.612Z,91.90
2017-09-28T05:47:53.885Z,91.90
2017-09-28T05:50:22.139Z,92.00
2017-09-28T05:52:50.462Z,92.00
2017-09-28T05:55:18.723Z,92.00
2017-09-28T05:57:47.569Z,92.00
2017-09-28T06:00:15.878Z,92.00
2017-09-28T06:02:44.902Z,92.10
2017-09-28T06:05:13.182Z,92.00
2017-09-28T06:07:41.462Z,92.00
2017-09-28T06:10:09.774Z,92.00
2017-09-28T06:12:38.025Z,92.00
2017-09-28T06:15:07.219Z,92.30
2017-09-28T06:17:35.470Z,92.20
2017-09-28T06:20:03.726Z,92.20
2017-09-28T06:22:31.966Z,92.20
2017-09-28T06:25:00.230Z,92.10
2017-09-28T06:27:29.249Z,92.10
2017-09-28T06:29:57.514Z,92.10
2017-09-28T06:32:25.773Z,92.10
2017-09-28T06:34:55.543Z,92.00
2017-09-28T06:37:23.795Z,92.00
2017-09-28T06:39:52.067Z,92.00
2017-09-28T06:42:21.105Z,92.10
2017-09-28T06:44:49.434Z,92.10
2017-09-28T06:47:17.675Z,92.10
2017-09-28T06:49:45.942Z,92.00
2017-09-28T06:52:14.214Z,92.10
2017-09-28T06:54:42.466Z,92.10
2017-09-28T06:57:11.511Z,91.90
2017-09-28T06:59:39.790Z,91.90
2017-09-28T07:02:08.063Z,91.90
2017-09-28T07:04:36.330Z,91.80
2017-09-28T07:07:04.579Z,91.70
2017-09-28T07:09:33.727Z,91.50
2017-09-28T07:12:02.600Z,91.50
2017-09-28T07:14:30.891Z,91.20
2017-09-28T07:16:59.161Z,91.00
2017-09-28T07:19:27.644Z,90.70
2017-09-28T07:21:55.958Z,90.40
2017-09-28T07:24:24.265Z,90.30
2017-09-28T07:26:52.522Z,90.40
2017-09-28T07:29:20.799Z,90.20
2017-09-28T07:31:49.071Z,90.00
2017-09-28T07:34:17.326Z,89.80
2017-09-28T07:36:45.591Z,89.70
2017-09-28T07:39:14.877Z,89.50
2017-09-28T07:41:43.920Z,90.10
2017-09-28T07:44:12.175Z,89.80
2017-09-28T07:46:40.982Z,90.10
2017-09-28T07:49:10.009Z,90.40
2017-09-28T07:51:38.274Z,90.40
2017-09-28T07:54:06.575Z,90.60
2017-09-28T07:56:34.968Z,90.60
2017-09-28T07:59:03.223Z,90.70
2017-09-28T08:01:31.643Z,90.60
2017-09-28T08:03:59.927Z,90.40
2017-09-28T08:06:28.194Z,90.20
2017-09-28T08:08:56.475Z,89.90
2017-09-28T08:11:24.764Z,88.70
2017-09-28T08:13:53.026Z,88.40
2017-09-28T08:16:21.320Z,87.80
2017-09-28T08:18:49.569Z,86.90
2017-09-28T08:21:17.861Z,86.60
2017-09-28T08:23:46.140Z,86.00
2017-09-28T08:26:14.443Z,86.10
2017-09-28T08:28:42.821Z,85.20
2017-09-28T08:31:11.922Z,84.40
2017-09-28T08:33:40.295Z,84.40
2017-09-28T08:36:08.549Z,84.10
2017-09-28T08:38:36.821Z,84.00
2017-09-28T08:41:05.851Z,83.30
2017-09-28T08:43:34.142Z,83.30
2017-09-28T08:46:02.422Z,83.40
2017-09-28T08:48:30.706Z,83.90
2017-09-28T08:50:58.946Z,84.00
2017-09-28T08:53:27.975Z,84.80
2017-09-28T08:55:56.230Z,84.80
2017-09-28T08:58:25.256Z,85.70
2017-09-28T09:00:53.550Z,85.70
2017-09-28T09:03:21.823Z,85.50
2017-09-28T09:05:50.076Z,85.50
2017-09-28T09:08:19.127Z,86.00
2017-09-28T09:10:47.392Z,86.00
2017-09-28T09:13:15.751Z,86.20
2017-09-28T09:15:44.768Z,86.30
2017-09-28T09:18:13.048Z,86.30
2017-09-28T09:20:41.337Z,86.20
2017-09-28T09:23:09.611Z,86.40
2017-09-28T09:25:37.911Z,86.30
2017-09-28T09:28:06.176Z,86.00
2017-09-28T09:30:34.427Z,86.10
2017-09-28T09:33:02.718Z,85.90
2017-09-28T09:35:31.022Z,86.30
2017-09-28T09:37:59.295Z,86.20
2017-09-28T09:40:27.547Z,85.30
2017-09-28T09:42:56.571Z,84.70
2017-09-28T09:45:24.839Z,84.70
2017-09-28T09:47:53.094Z,84.40
2017-09-28T09:50:22.159Z,84.00
2017-09-28T09:52:50.411Z,84.00
2017-09-28T09:55:18.669Z,83.60
2017-09-28T09:57:46.999Z,83.40
2017-09-28T10:00:15.268Z,83.30
2017-09-28T10:02:43.513Z,83.40
2017-09-28T10:05:12.650Z,83.90
2017-09-28T10:07:50.494Z,83.90
2017-09-28T10:10:25.179Z,83.60
2017-09-28T10:12:55.242Z,83.60
2017-09-28T10:15:40.366Z,83.40
2017-09-28T10:18:08.919Z,84.50
2017-09-28T10:20:37.189Z,83.50
2017-09-28T10:23:05.540Z,83.50
2017-09-28T10:25:33.798Z,83.40
2017-09-28T10:28:02.048Z,82.80
2017-09-28T10:30:30.503Z,82.70
2017-09-28T10:32:59.632Z,81.80
2017-09-28T10:35:30.091Z,81.60
2017-09-28T10:37:58.347Z,80.80
2017-09-28T10:40:26.787Z,80.80
2017-09-28T10:42:55.066Z,80.00
2017-09-28T10:45:23.332Z,79.70
2017-09-28T10:47:51.599Z,79.70
2017-09-28T10:50:19.868Z,79.90
2017-09-28T10:52:48.910Z,79.50
2017-09-28T10:55:17.264Z,79.40
2017-09-28T10:57:45.585Z,79.70
2017-09-28T11:00:13.875Z,78.90
2017-09-28T11:02:42.138Z,77.70
2017-09-28T11:05:10.478Z,76.80
2017-09-28T11:07:38.939Z,75.80
2017-09-28T11:10:07.194Z,75.90
2017-09-28T11:12:35.471Z,75.50
2017-09-28T11:15:03.728Z,74.20
2017-09-28T11:17:32.028Z,74.50
2017-09-28T11:20:00.324Z,74.70
2017-09-28T11:22:29.766Z,74.50
2017-09-28T11:24:58.095Z,74.30
2017-09-28T11:27:26.454Z,73.70
2017-09-28T11:29:54.770Z,73.70
2017-09-28T11:32:23.047Z,74.50
2017-09-28T11:34:51.347Z,72.90
2017-09-28T11:37:19.616Z,73.00
2017-09-28T11:39:47.858Z,72.00
2017-09-28T11:42:16.995Z,72.00
2017-09-28T11:44:45.250Z,72.00
2017-09-28T11:47:13.515Z,71.20
2017-09-28T11:49:42.535Z,72.90
2017-09-28T11:52:10.826Z,72.00
2017-09-28T11:54:39.134Z,72.60
2017-09-28T11:57:07.420Z,72.40
2017-09-28T11:59:35.667Z,72.90
2017-09-28T12:02:03.919Z,73.30
2017-09-28T12:04:32.951Z,74.20
2017-09-28T12:07:01.262Z,74.10
2017-09-28T12:09:29.633Z,74.30
2017-09-28T12:11:57.911Z,74.80
2017-09-28T12:14:26.173Z,73.90
2017-09-28T12:16:54.439Z,72.70
2017-09-28T12:19:23.472Z,71.80
2017-09-28T12:21:51.762Z,71.70
2017-09-28T12:24:20.026Z,70.20
2017-09-28T12:26:48.284Z,70.10
2017-09-28T12:29:17.347Z,69.60
2017-09-28T12:31:45.590Z,69.60
2017-09-28T12:34:13.880Z,70.50
2017-09-28T12:36:42.140Z,70.30
2017-09-28T12:39:10.438Z,68.70
2017-09-28T12:41:38.763Z,68.30
2017-09-28T12:44:07.048Z,68.30
2017-09-28T12:46:35.416Z,68.50
2017-09-28T12:49:03.683Z,67.10
2017-09-28T12:51:31.931Z,65.90
2017-09-28T12:54:00.235Z,66.40
2017-09-28T12:56:28.518Z,67.20
2017-09-28T12:58:56.788Z,67.20
2017-09-28T13:01:25.046Z,66.10
2017-09-28T13:03:54.100Z,66.30
2017-09-28T13:06:22.359Z,66.30
2017-09-28T13:08:50.607Z,66.00
2017-09-28T13:11:18.913Z,66.40
2017-09-28T13:13:47.180Z,67.10
2017-09-28T13:16:15.483Z,67.30
2017-09-28T13:18:43.742Z,67.50
2017-09-28T13:21:12.045Z,66.90
2017-09-28T13:23:40.346Z,67.00
2017-09-28T13:26:08.603Z,66.20
2017-09-28T13:28:36.872Z,66.00
2017-09-28T13:31:05.156Z,66.20
2017-09-28T13:33:33.405Z,66.10
2017-09-28T13:36:02.539Z,66.40
2017-09-28T13:38:30.835Z,66.30
2017-09-28T13:40:59.114Z,66.80
2017-09-28T13:43:27.383Z,67.30
2017-09-28T13:45:55.672Z,67.60
2017-09-28T13:48:29.488Z,67.50
2017-09-28T13:50:57.781Z,67.80
2017-09-28T13:53:26.664Z,67.90
2017-09-28T13:55:54.912Z,67.70
2017-09-28T13:58:23.905Z,68.50
2017-09-28T14:00:53.032Z,68.60
2017-09-28T14:03:21.315Z,68.60
2017-09-28T14:05:49.609Z,68.90
2017-09-28T14:08:17.858Z,70.30
2017-09-28T14:10:46.169Z,69.50
2017-09-28T14:13:14.418Z,68.70
2017-09-28T14:15:42.706Z,68.80
2017-09-28T14:18:11.023Z,68.40
2017-09-28T14:20:39.296Z,69.60
2017-09-28T14:23:07.547Z,69.80
2017-09-28T14:25:35.811Z,70.70
2017-09-28T14:28:04.946Z,70.10
2017-09-28T14:30:33.237Z,70.00
2017-09-28T14:33:01.498Z,70.90
2017-09-28T14:35:29.794Z,71.30
2017-09-28T14:37:58.074Z,72.50
2017-09-28T14:40:26.326Z,72.30
2017-09-28T14:42:54.672Z,72.50
2017-09-28T14:45:22.918Z,72.80
2017-09-28T14:47:51.177Z,72.80
2017-09-28T14:50:19.473Z,73.00
2017-09-28T14:52:47.743Z,73.10
2017-09-28T14:55:16.003Z,73.70
2017-09-28T14:57:45.053Z,73.20
2017-09-28T15:00:13.302Z,73.20
2017-09-28T15:02:41.575Z,73.30
2017-09-28T15:05:09.826Z,73.60
2017-09-28T15:07:38.890Z,73.10
2017-09-28T15:10:07.169Z,73.70
2017-09-28T15:12:35.447Z,74.10
2017-09-28T15:15:04.104Z,74.30
2017-09-28T15:17:32.513Z,75.20
2017-09-28T15:20:00.818Z,75.50
2017-09-28T15:22:29.086Z,75.30
2017-09-28T15:24:57.336Z,75.20
2017-09-28T15:27:25.667Z,75.20
2017-09-28T15:29:53.912Z,74.70
2017-09-28T15:32:22.205Z,74.20
2017-09-28T15:34:50.718Z,74.60
2017-09-28T15:37:18.974Z,74.80
2017-09-28T15:39:47.233Z,74.80
2017-09-28T15:42:15.511Z,75.00
2017-09-28T15:44:43.796Z,75.30
2017-09-28T15:47:12.049Z,75.40
2017-09-28T15:49:40.322Z,75.80
2017-09-28T15:52:08.668Z,75.80
2017-09-28T15:54:37.054Z,76.00
2017-09-28T15:57:05.312Z,76.00
2017-09-28T15:59:33.580Z,75.80
2017-09-28T16:02:01.925Z,76.10
2017-09-28T16:04:30.234Z,75.60
2017-09-28T16:06:59.282Z,75.80
2017-09-28T16:09:27.549Z,75.80
2017-09-28T16:11:55.813Z,76.30
2017-09-28T16:14:24.080Z,76.30
2017-09-28T16:16:53.105Z,77.30
2017-09-28T16:19:21.388Z,77.00
2017-09-28T16:21:49.637Z,77.10
2017-09-28T16:24:18.775Z,77.50
2017-09-28T16:26:47.064Z,77.40
2017-09-28T16:29:15.339Z,77.70
2017-09-28T16:31:43.590Z,78.30
2017-09-28T16:34:12.635Z,78.60
2017-09-28T16:36:40.891Z,78.50
2017-09-28T16:39:09.180Z,79.20
2017-09-28T16:41:37.428Z,79.20
2017-09-28T16:44:06.446Z,79.40
2017-09-28T16:46:34.724Z,79.40
2017-09-28T16:49:02.982Z,79.50
2017-09-28T16:51:32.024Z,80.10
2017-09-28T16:54:00.291Z,80.10
2017-09-28T16:56:28.587Z,80.40
2017-09-28T16:58:57.594Z,80.70
2017-09-28T17:01:25.861Z,80.50
2017-09-28T17:03:54.151Z,80.60
2017-09-28T17:06:22.425Z,81.00
2017-09-28T17:08:50.689Z,81.10
2017-09-28T17:11:18.955Z,81.20
2017-09-28T17:13:47.303Z,81.60
2017-09-28T17:16:15.650Z,81.80
2017-09-28T17:18:44.259Z,82.00
2017-09-28T17:21:12.524Z,82.40
2017-09-28T17:23:40.800Z,82.20
2017-09-28T17:26:09.067Z,82.20
2017-09-28T17:28:37.366Z,82.30
2017-09-28T17:31:05.641Z,82.50
2017-09-28T17:33:33.895Z,82.80
2017-09-28T17:36:02.171Z,82.90
2017-09-28T17:38:31.180Z,83.10
2017-09-28T17:41:00.269Z,83.20
2017-09-28T17:43:29.279Z,83.40
2017-09-28T17:45:57.580Z,83.40
2017-09-28T17:48:25.871Z,83.60
2017-09-28T17:50:54.160Z,83.60
2017-09-28T17:53:22.424Z,84.00
2017-09-28T17:55:50.676Z,84.40
2017-09-28T17:58:18.993Z,84.90
2017-09-28T18:00:47.244Z,85.00
2017-09-28T18:03:15.567Z,85.30
2017-09-28T18:05:43.830Z,85.40
2017-09-28T18:08:12.115Z,85.50
2017-09-28T18:10:40.398Z,85.60
2017-09-28T18:13:08.655Z,85.80
2017-09-28T18:15:37.769Z,85.90
2017-09-28T18:18:06.043Z,85.80
2017-09-28T18:20:34.302Z,86.00
2017-09-28T18:23:03.327Z,86.30
2017-09-28T18:25:31.585Z,86.20
2017-09-28T18:28:00.717Z,86.20
2017-09-28T18:30:28.976Z,86.20
2017-09-28T18:32:57.243Z,86.00
2017-09-28T18:35:26.257Z,86.10
2017-09-28T18:37:54.534Z,86.10
2017-09-28T18:40:22.793Z,86.20
2017-09-28T18:42:51.072Z,86.00
2017-09-28T18:45:20.141Z,86.10
2017-09-28T18:47:48.553Z,86.10
2017-09-28T18:50:16.795Z,86.00
2017-09-28T18:52:45.066Z,86.00
2017-09-28T18:55:13.359Z,85.90
2017-09-28T18:57:41.628Z,85.80
2017-09-28T19:00:09.928Z,86.00
2017-09-28T19:02:38.324Z,86.00
2017-09-28T19:05:06.604Z,86.10
2017-09-28T19:07:34.863Z,86.20
2017-09-28T19:10:03.150Z,86.60
2017-09-28T19:12:31.419Z,86.70
2017-09-28T19:14:59.717Z,86.70
2017-09-28T19:17:27.970Z,86.70
2017-09-28T19:19:56.392Z,86.70
2017-09-28T19:22:24.627Z,87.50
2017-09-28T19:24:52.906Z,87.70
2017-09-28T19:27:21.176Z,88.10
2017-09-28T19:29:50.240Z,88.50
2017-09-28T19:32:18.486Z,88.50
2017-09-28T19:34:46.751Z,88.40
2017-09-28T19:37:15.015Z,88.20
2017-09-28T19:39:44.053Z,87.90
2017-09-28T19:42:12.344Z,87.90
2017-09-28T19:44:40.619Z,88.00
2017-09-28T19:47:09.243Z,87.80
2017-09-28T19:49:37.498Z,87.90
2017-09-28T19:52:07.448Z,87.90
2017-09-28T19:54:36.711Z,88.00
2017-09-28T19:57:04.964Z,88.00
2017-09-28T19:59:33.232Z,88.20
2017-09-28T20:02:02.259Z,88.00
2017-09-28T20:04:30.567Z,87.90
2017-09-28T20:06:58.850Z,87.60
2017-09-28T20:09:27.223Z,87.50
2017-09-28T20:11:55.480Z,87.30
2017-09-28T20:14:23.739Z,87.90
2017-09-28T20:16:52.787Z,87.10
2017-09-28T20:19:21.072Z,87.10
2017-09-28T20:21:49.319Z,87.10
2017-09-28T20:24:17.627Z,87.30
2017-09-28T20:26:45.897Z,87.40
2017-09-28T20:29:14.151Z,87.70
2017-09-28T20:31:43.222Z,87.60
2017-09-28T20:34:11.562Z,87.60
2017-09-28T20:36:39.841Z,87.50
2017-09-28T20:39:08.096Z,87.70
2017-09-28T20:41:36.378Z,87.80
2017-09-28T20:44:05.417Z,88.00
2017-09-28T20:46:33.686Z,87.90
2017-09-28T20:49:01.939Z,87.90
2017-09-28T20:51:30.967Z,87.60
2017-09-28T20:53:59.853Z,87.60
2017-09-28T20:56:28.122Z,87.40
2017-09-28T20:58:56.370Z,87.60
2017-09-28T21:01:24.639Z,87.40
2017-09-28T21:03:52.894Z,87.70
2017-09-28T21:06:21.174Z,87.90
2017-09-28T21:08:49.452Z,88.10
2017-09-28T21:11:17.721Z,88.30
2017-09-28T21:13:45.983Z,88.50
2017-09-28T21:16:15.119Z,88.80
2017-09-28T21:18:43.401Z,88.80
2017-09-28T21:21:11.665Z,89.20
2017-09-28T21:23:39.950Z,89.40
2017-09-28T21:26:08.210Z,89.70
2017-09-28T21:28:36.475Z,89.80
2017-09-28T21:31:04.837Z,90.00
2017-09-28T21:33:33.097Z,90.10
2017-09-28T21:36:01.371Z,90.20
2017-09-28T21:38:29.649Z,90.30
2017-09-28T21:40:57.898Z,90.30
2017-09-28T21:43:26.218Z,90.40
2017-09-28T21:45:54.474Z,90.50
2017-09-28T21:48:22.757Z,90.50
2017-09-28T21:50:51.052Z,90.40
2017-09-28T21:53:19.307Z,90.40
2017-09-28T21:55:47.698Z,90.60
2017-09-28T21:58:16.016Z,90.60
2017-09-28T22:00:44.263Z,90.60
2017-09-28T22:03:12.570Z,90.70
2017-09-28T22:05:40.856Z,90.80
2017-09-28T22:08:09.156Z,90.90
2017-09-28T22:10:37.415Z,90.80
2017-09-28T22:13:05.717Z,91.00
2017-09-28T22:15:33.996Z,91.00
2017-09-28T22:18:03.078Z,91.20
2017-09-28T22:20:31.343Z,91.20
2017-09-28T22:22:59.619Z,91.30
2017-09-28T22:25:27.872Z,91.40
2017-09-28T22:27:56.921Z,91.70
2017-09-28T22:30:25.179Z,91.70
2017-09-28T22:32:53.511Z,91.70
2017-09-28T22:35:21.749Z,91.80
2017-09-28T22:37:50.035Z,91.80
2017-09-28T22:40:19.179Z,91.80
2017-09-28T22:42:47.446Z,91.80
2017-09-28T22:45:15.810Z,91.80
2017-09-28T22:47:44.071Z,91.80
2017-09-28T22:50:12.356Z,91.90
2017-09-28T22:52:40.678Z,92.00
2017-09-28T22:55:08.977Z,91.90
2017-09-28T22:57:37.220Z,92.00
2017-09-28T23:00:05.493Z,92.10
2017-09-28T23:02:33.744Z,92.10
2017-09-28T23:05:02.013Z,92.10
2017-09-28T23:07:31.026Z,92.20
2017-09-28T23:09:59.296Z,92.20
2017-09-28T23:12:28.314Z,92.20
2017-09-28T23:14:56.578Z,92.20
2017-09-28T23:17:24.883Z,92.30
2017-09-28T23:19:53.147Z,92.30
2017-09-28T23:22:21.576Z,92.30
2017-09-28T23:24:49.857Z,92.30
2017-09-28T23:27:18.152Z,92.30
2017-09-28T23:29:47.188Z,92.60
2017-09-28T23:32:15.455Z,92.60
2017-09-28T23:34:44.639Z,92.60
2017-09-28T23:37:12.899Z,92.60
2017-09-28T23:39:41.174Z,92.70
2017-09-28T23:42:09.431Z,92.70
2017-09-28T23:44:37.727Z,92.70
2017-09-28T23:47:06.041Z,92.80
2017-09-28T23:49:34.288Z,92.80
2017-09-28T23:52:02.540Z,92.70
2017-09-28T23:54:30.854Z,92.80
2017-09-28T23:56:59.142Z,92.70
2017-09-28T23:59:27.390Z,92.70
